Todmorden, United Kingdom
Current Conditions -  °F | °C
As of 1:20 AM on Wednesday 28 Jan 2015 (Local Time) from EGNM Reporting Station
Broken Clouds Broken Clouds  
Wind Chill: 33°   Ceiling: 600
Heat Index: 41°   Visibility: 6mi
Dew Point: 39°   Wind: 16mph
Humidity: 93%   Direction: 230°SW
Pressure: 29.77"   Gusts: 28mph
Location:  53.71°N, 2.1°W
Report Text: EGNM 280120Z 23014G24KT 9999 BKN006 05/04 Q1008
Loading
Personal Weather Stations






























Interactive Weather Map New forecast layout! Learn more

10-Day Weather Forecast

Advertisements
Track Severe Weather on mobile